Time;durP1;ratioP1;P1;durP2;ratioP2;P2;SDS_P1;SDS_P2;PMS_P1;PMS_P2;Temp;Humidity;BMP_temperature;BMP_pressure;BME280_temperature;BME280_humidity;BME280_pressure;Samples;Min_cycle;Max_cycle;Signal;HPM_P1;HPM_P2
2024/02/27 00:00:31;;;;;;;3.75;1.80;;;8.30;99.90;;;;;;5074087;28;20194;-46
2024/02/27 00:03:01;;;;;;;3.85;3.00;;;8.30;99.90;;;;;;5074815;28;20215;-44
2024/02/27 00:05:30;;;;;;;4.20;2.25;;;8.30;99.90;;;;;;5072978;28;20222;-46
2024/02/27 00:07:59;;;;;;;3.30;2.20;;;8.30;99.90;;;;;;5074265;28;20212;-45
2024/02/27 00:10:27;;;;;;;4.22;2.63;;;8.30;99.90;;;;;;5076423;28;20216;-45
2024/02/27 00:12:57;;;;;;;3.25;2.20;;;8.30;99.90;;;;;;5071159;28;20793;-46
2024/02/27 00:15:28;;;;;;;2.93;2.30;;;8.30;99.90;;;;;;5076098;28;20296;-46
2024/02/27 00:17:56;;;;;;;2.83;2.25;;;8.30;99.90;;;;;;5073901;28;20531;-46
2024/02/27 00:20:26;;;;;;;3.75;2.45;;;8.30;99.90;;;;;;5072470;28;20199;-46
2024/02/27 00:22:56;;;;;;;3.83;2.90;;;8.30;99.90;;;;;;5064669;28;20222;-46
2024/02/27 00:25:24;;;;;;;7.90;5.77;;;8.30;99.90;;;;;;5075076;28;20214;-45
2024/02/27 00:27:52;;;;;;;3.00;2.33;;;8.30;99.90;;;;;;5073892;28;20458;-45
2024/02/27 00:30:23;;;;;;;4.00;2.60;;;8.30;99.90;;;;;;5070804;28;20823;-46
2024/02/27 00:32:56;;;;;;;3.60;2.65;;;8.30;99.90;;;;;;5072517;28;20458;-46
2024/02/27 00:35:26;;;;;;;3.60;2.57;;;8.30;99.90;;;;;;5069631;28;20230;-46
2024/02/27 00:37:55;;;;;;;3.30;2.20;;;8.30;99.90;;;;;;5070191;28;20462;-46
2024/02/27 00:40:23;;;;;;;3.83;2.47;;;8.30;99.90;;;;;;5074129;28;20188;-47
2024/02/27 00:42:54;;;;;;;3.37;3.07;;;8.30;99.90;;;;;;5066326;28;20493;-47
2024/02/27 00:45:25;;;;;;;2.80;2.50;;;8.30;99.90;;;;;;5069289;28;20461;-48
2024/02/27 00:47:54;;;;;;;3.50;2.83;;;8.30;99.90;;;;;;5071631;28;20508;-46
2024/02/27 00:50:29;;;;;;;2.90;2.40;;;8.30;99.90;;;;;;5077587;28;20438;-46
2024/02/27 00:52:57;;;;;;;4.90;4.25;;;8.30;99.90;;;;;;5073259;28;20831;-46
2024/02/27 00:55:27;;;;;;;4.05;3.00;;;8.30;99.90;;;;;;5073071;28;20215;-46
2024/02/27 00:57:56;;;;;;;3.30;2.53;;;8.20;99.90;;;;;;5072609;28;20705;-44
2024/02/27 01:00:27;;;;;;;3.70;3.08;;;8.30;99.90;;;;;;5069094;28;20499;-47
2024/02/27 01:02:55;;;;;;;4.10;2.97;;;8.30;99.90;;;;;;5072741;28;20219;-46
2024/02/27 01:05:24;;;;;;;4.83;3.10;;;8.20;99.90;;;;;;5070568;28;20839;-46
2024/02/27 01:07:54;;;;;;;3.57;2.87;;;8.30;99.90;;;;;;5070658;28;20629;-45
2024/02/27 01:10:26;;;;;;;3.80;2.60;;;8.30;99.90;;;;;;5073254;28;20478;-45
2024/02/27 01:12:55;;;;;;;3.43;2.60;;;8.30;99.90;;;;;;5072451;28;20216;-45
2024/02/27 01:15:23;;;;;;;3.63;2.92;;;8.30;99.90;;;;;;5074936;28;20449;-47
2024/02/27 01:17:54;;;;;;;3.90;2.70;;;8.30;99.90;;;;;;5071537;28;20214;-46
2024/02/27 01:20:23;;;;;;;3.45;2.70;;;8.30;99.90;;;;;;5040238;28;20965;-47
2024/02/27 01:22:51;;;;;;;3.22;2.60;;;8.30;99.90;;;;;;5072349;28;20216;-46
2024/02/27 01:25:23;;;;;;;3.60;2.58;;;8.30;99.90;;;;;;5074471;28;20239;-46
2024/02/27 01:27:55;;;;;;;4.97;2.70;;;8.30;99.90;;;;;;5065920;28;20226;-46
2024/02/27 01:30:24;;;;;;;4.30;3.00;;;8.30;99.90;;;;;;5069299;28;20194;-45
2024/02/27 01:32:53;;;;;;;3.70;2.67;;;8.30;99.90;;;;;;5070858;28;20990;-46
2024/02/27 01:35:21;;;;;;;3.53;2.60;;;8.30;99.90;;;;;;5065820;28;20222;-47
2024/02/27 01:37:50;;;;;;;3.55;2.55;;;8.30;99.90;;;;;;5070730;28;20457;-46
2024/02/27 01:40:23;;;;;;;5.70;4.50;;;8.20;99.90;;;;;;5072181;28;20192;-46
2024/02/27 01:42:51;;;;;;;5.37;2.83;;;8.30;99.90;;;;;;5071487;28;20465;-45
2024/02/27 01:45:25;;;;;;;3.40;2.73;;;8.20;99.90;;;;;;5071440;28;20461;-44
2024/02/27 01:47:57;;;;;;;3.95;2.80;;;8.30;99.90;;;;;;5071441;28;20468;-46
2024/02/27 01:50:27;;;;;;;3.20;2.28;;;8.30;99.90;;;;;;5071101;28;20198;-45
2024/02/27 01:52:57;;;;;;;3.38;2.55;;;8.30;99.90;;;;;;5070632;28;20239;-45
2024/02/27 01:55:29;;;;;;;5.65;3.40;;;8.30;99.90;;;;;;5071570;28;20220;-45
2024/02/27 01:57:57;;;;;;;3.90;2.80;;;8.20;99.90;;;;;;5053183;28;20650;-46
2024/02/27 02:00:25;;;;;;;6.65;4.97;;;8.20;99.90;;;;;;5075498;28;20191;-45
2024/02/27 02:02:54;;;;;;;3.40;3.03;;;8.30;99.90;;;;;;5070518;28;20762;-47
2024/02/27 02:05:24;;;;;;;5.60;4.07;;;8.20;99.90;;;;;;5070370;28;20227;-47
2024/02/27 02:07:55;;;;;;;6.20;4.30;;;8.20;99.90;;;;;;5070053;28;20230;-46
2024/02/27 02:10:23;;;;;;;4.68;3.60;;;8.20;99.90;;;;;;5076651;28;20180;-45
2024/02/27 02:12:52;;;;;;;3.55;2.88;;;8.20;99.90;;;;;;5072021;28;20286;-45
2024/02/27 02:15:24;;;;;;;4.68;3.67;;;8.20;99.90;;;;;;5076769;28;20630;-45
2024/02/27 02:17:53;;;;;;;3.13;2.75;;;8.20;99.90;;;;;;5075235;28;20268;-46
2024/02/27 02:20:26;;;;;;;3.42;2.22;;;8.20;99.90;;;;;;5066261;28;20203;-45
2024/02/27 02:22:54;;;;;;;3.88;2.95;;;8.20;99.90;;;;;;5075624;28;20295;-45
2024/02/27 02:25:30;;;;;;;5.13;3.30;;;8.20;99.90;;;;;;5082649;28;20635;-45
2024/02/27 02:27:58;;;;;;;3.35;2.92;;;8.20;99.90;;;;;;5074715;28;20547;-45
2024/02/27 02:30:27;;;;;;;4.23;3.17;;;8.20;99.90;;;;;;5074556;28;20207;-45
2024/02/27 02:32:57;;;;;;;3.20;2.45;;;8.20;99.90;;;;;;5074565;28;20590;-45
2024/02/27 02:35:28;;;;;;;3.97;2.80;;;8.20;99.90;;;;;;5071743;28;20258;-46
2024/02/27 02:37:57;;;;;;;2.70;2.00;;;8.20;99.90;;;;;;5078503;28;20244;-46
2024/02/27 02:40:26;;;;;;;6.03;4.35;;;8.20;99.90;;;;;;5074857;28;20432;-45
2024/02/27 02:42:57;;;;;;;3.33;2.53;;;8.20;99.90;;;;;;5067776;28;20211;-47
2024/02/27 02:45:26;;;;;;;3.60;2.60;;;8.20;99.90;;;;;;5075261;28;20281;-46
2024/02/27 02:47:57;;;;;;;3.50;2.75;;;8.20;99.90;;;;;;5073871;28;20700;-46
2024/02/27 02:50:29;;;;;;;4.13;3.03;;;8.20;99.90;;;;;;5074865;28;20561;-45
2024/02/27 02:52:57;;;;;;;3.53;2.43;;;8.20;99.90;;;;;;5072849;28;20476;-46
2024/02/27 02:55:27;;;;;;;3.60;2.80;;;8.20;99.90;;;;;;5076418;28;20458;-44
2024/02/27 02:57:56;;;;;;;3.05;2.00;;;8.20;99.90;;;;;;5074086;28;20476;-45
2024/02/27 03:00:27;;;;;;;3.67;2.43;;;8.20;99.90;;;;;;5075044;28;20679;-47
2024/02/27 03:02:57;;;;;;;3.80;2.83;;;8.20;99.90;;;;;;5068892;28;20462;-47
2024/02/27 03:05:28;;;;;;;3.65;2.30;;;8.20;99.90;;;;;;5048272;28;20224;-46
2024/02/27 03:07:57;;;;;;;3.55;2.30;;;8.20;99.90;;;;;;5076019;28;20262;-47
2024/02/27 03:10:26;;;;;;;3.53;2.20;;;8.20;99.90;;;;;;5075874;28;20245;-45
2024/02/27 03:12:54;;;;;;;4.20;3.17;;;8.20;99.90;;;;;;5074458;28;20270;-46
2024/02/27 03:15:22;;;;;;;2.90;2.57;;;8.20;99.90;;;;;;5074508;28;20461;-48
2024/02/27 03:17:53;;;;;;;2.97;2.67;;;8.20;99.90;;;;;;5073318;28;20564;-45
2024/02/27 03:20:24;;;;;;;3.93;3.00;;;8.20;99.90;;;;;;5065763;28;20442;-46
2024/02/27 03:22:56;;;;;;;2.97;2.58;;;8.20;99.90;;;;;;5074391;28;20458;-45
2024/02/27 03:25:25;;;;;;;3.03;2.23;;;8.20;99.90;;;;;;5072691;28;20213;-45
2024/02/27 03:27:55;;;;;;;3.90;2.43;;;8.20;99.90;;;;;;5073536;28;20473;-45
2024/02/27 03:30:25;;;;;;;3.40;2.80;;;8.20;99.90;;;;;;5073861;28;20477;-46
2024/02/27 03:32:54;;;;;;;3.15;2.47;;;8.20;99.90;;;;;;5073422;28;20213;-48
2024/02/27 03:35:24;;;;;;;3.40;3.00;;;8.20;99.90;;;;;;5065880;28;20686;-45
2024/02/27 03:37:56;;;;;;;4.88;2.80;;;8.20;99.90;;;;;;5072738;28;20470;-46
2024/02/27 03:40:27;;;;;;;3.35;2.70;;;8.20;99.90;;;;;;5058522;28;20672;-45
2024/02/27 03:42:55;;;;;;;3.80;3.05;;;8.20;99.90;;;;;;5069519;28;20269;-48
2024/02/27 03:45:26;;;;;;;5.57;2.90;;;8.20;99.90;;;;;;5072402;28;20212;-45
2024/02/27 03:47:55;;;;;;;4.55;3.20;;;8.20;99.90;;;;;;5081620;28;20222;-45
2024/02/27 03:50:26;;;;;;;4.23;3.13;;;8.20;99.90;;;;;;5067242;28;20200;-46
2024/02/27 03:52:57;;;;;;;4.10;3.00;;;8.20;99.90;;;;;;5073523;28;20472;-46
2024/02/27 03:55:25;;;;;;;3.10;2.80;;;8.20;99.90;;;;;;5071896;28;20460;-45
2024/02/27 03:57:53;;;;;;;3.50;2.97;;;8.20;99.90;;;;;;5073709;28;20265;-46
2024/02/27 04:00:24;;;;;;;4.18;3.25;;;8.20;99.90;;;;;;5068612;28;20926;-46
2024/02/27 04:02:55;;;;;;;5.00;3.70;;;8.20;99.90;;;;;;5071825;28;20670;-46
2024/02/27 04:05:24;;;;;;;4.70;3.20;;;8.20;99.90;;;;;;5064083;28;20466;-46
2024/02/27 04:07:52;;;;;;;3.95;2.90;;;8.20;99.90;;;;;;5073222;28;20458;-46
2024/02/27 04:10:22;;;;;;;4.57;3.28;;;8.20;99.90;;;;;;5072906;28;20637;-45
2024/02/27 04:12:53;;;;;;;3.60;2.92;;;8.20;99.90;;;;;;5067145;28;20215;-46
2024/02/27 04:15:25;;;;;;;5.80;3.67;;;8.20;99.90;;;;;;5073712;28;20265;-46
2024/02/27 04:17:55;;;;;;;4.38;3.50;;;8.20;99.90;;;;;;5071830;28;20211;-46
2024/02/27 04:20:23;;;;;;;4.60;3.60;;;8.20;99.90;;;;;;5071896;28;20196;-45
2024/02/27 04:22:52;;;;;;;6.80;5.00;;;8.20;99.90;;;;;;5066899;28;20458;-46
2024/02/27 04:25:25;;;;;;;4.17;3.10;;;8.20;99.90;;;;;;5073772;28;20446;-45
2024/02/27 04:27:54;;;;;;;4.47;4.07;;;8.10;99.90;;;;;;5072463;28;20471;-47
2024/02/27 04:30:22;;;;;;;4.33;2.80;;;8.10;99.90;;;;;;5070414;28;20448;-45
2024/02/27 04:32:51;;;;;;;3.90;3.47;;;8.20;99.90;;;;;;5065118;28;20840;-46
2024/02/27 04:35:23;;;;;;;4.60;3.70;;;8.20;99.90;;;;;;5068387;28;20462;-46
2024/02/27 04:37:51;;;;;;;6.63;5.15;;;8.20;99.90;;;;;;5071886;28;20462;-46
2024/02/27 04:40:20;;;;;;;5.00;4.10;;;8.20;99.90;;;;;;5073164;28;20618;-45
2024/02/27 04:42:50;;;;;;;4.80;4.30;;;8.10;99.90;;;;;;5071101;28;20464;-45
2024/02/27 04:45:18;;;;;;;5.30;4.50;;;8.10;99.90;;;;;;5061515;28;20299;-47
2024/02/27 04:47:47;;;;;;;5.30;4.18;;;8.10;99.90;;;;;;5075287;28;20720;-46
2024/02/27 04:50:15;;;;;;;8.27;6.32;;;8.10;99.90;;;;;;5069816;28;20682;-45
2024/02/27 04:52:45;;;;;;;4.88;3.90;;;8.10;99.90;;;;;;5051068;28;20224;-44
2024/02/27 04:55:15;;;;;;;8.43;6.00;;;8.10;99.90;;;;;;5073363;28;20212;-46
2024/02/27 04:57:44;;;;;;;6.22;4.45;;;8.10;99.90;;;;;;5061663;28;20627;-45
2024/02/27 05:00:16;;;;;;;7.63;5.80;;;8.10;99.90;;;;;;5070796;28;20496;-45
2024/02/27 05:02:44;;;;;;;5.43;4.32;;;8.10;99.90;;;;;;5046624;28;20219;-46
2024/02/27 05:05:12;;;;;;;5.93;4.00;;;8.10;99.90;;;;;;5063492;28;20250;-45
2024/02/27 05:07:41;;;;;;;7.53;5.40;;;8.10;99.90;;;;;;5068277;28;20237;-46
2024/02/27 05:10:10;;;;;;;5.50;4.90;;;8.10;99.90;;;;;;5076140;28;20195;-46
2024/02/27 05:12:38;;;;;;;12.00;8.68;;;8.10;99.90;;;;;;5070012;28;20485;-46
2024/02/27 05:15:08;;;;;;;8.50;6.13;;;8.20;99.90;;;;;;5069862;28;20215;-46
2024/02/27 05:17:38;;;;;;;5.63;4.50;;;8.10;99.90;;;;;;5062526;28;20219;-46
2024/02/27 05:20:08;;;;;;;5.67;4.00;;;8.10;99.90;;;;;;5063277;28;20614;-45
2024/02/27 05:22:37;;;;;;;7.25;4.05;;;8.10;99.90;;;;;;5072355;28;20812;-45
2024/02/27 05:25:06;;;;;;;6.03;4.55;;;8.10;99.90;;;;;;5066728;28;20216;-45
2024/02/27 05:27:37;;;;;;;5.90;4.43;;;8.10;99.90;;;;;;5067780;28;20225;-46
2024/02/27 05:30:08;;;;;;;5.25;4.32;;;8.10;99.90;;;;;;5070577;28;20199;-45
2024/02/27 05:32:38;;;;;;;5.20;3.80;;;8.10;99.90;;;;;;5070120;28;20581;-47
2024/02/27 05:35:08;;;;;;;5.05;3.90;;;8.10;99.90;;;;;;5068528;28;20514;-48
2024/02/27 05:37:37;;;;;;;5.70;3.83;;;8.10;99.90;;;;;;5069261;28;20217;-46
2024/02/27 05:40:10;;;;;;;4.95;4.15;;;8.10;99.90;;;;;;5069912;28;20649;-46
2024/02/27 05:42:42;;;;;;;3.70;3.30;;;8.10;99.90;;;;;;5068185;28;20588;-47
2024/02/27 05:45:12;;;;;;;4.50;3.60;;;8.10;99.90;;;;;;5070293;28;20211;-46
2024/02/27 05:47:44;;;;;;;5.05;4.00;;;8.10;99.90;;;;;;5060642;28;20458;-47
2024/02/27 05:50:12;;;;;;;4.88;3.88;;;8.10;99.90;;;;;;5058570;28;20589;-45
2024/02/27 05:52:41;;;;;;;5.40;3.90;;;8.10;99.90;;;;;;5067771;28;20226;-45
2024/02/27 05:55:12;;;;;;;4.72;4.05;;;8.10;99.90;;;;;;5068199;28;20477;-47
2024/02/27 05:57:42;;;;;;;4.77;3.97;;;8.10;99.90;;;;;;5064778;28;20211;-46
2024/02/27 06:00:13;;;;;;;5.53;4.35;;;8.10;99.90;;;;;;5069918;28;20448;-47
2024/02/27 06:02:43;;;;;;;5.32;4.43;;;8.10;99.90;;;;;;5068349;28;20216;-46
2024/02/27 06:05:12;;;;;;;5.40;4.37;;;8.10;99.90;;;;;;5063516;28;20229;-46
2024/02/27 06:07:40;;;;;;;6.95;4.55;;;8.10;99.90;;;;;;5060343;28;21018;-46
2024/02/27 06:10:09;;;;;;;4.93;3.70;;;8.10;99.90;;;;;;5067805;28;20186;-46
2024/02/27 06:12:41;;;;;;;5.78;4.47;;;8.10;99.90;;;;;;5068923;28;20217;-45
2024/02/27 06:15:10;;;;;;;5.85;4.38;;;8.10;99.90;;;;;;5066920;28;20274;-45
2024/02/27 06:17:42;;;;;;;9.87;7.60;;;8.10;99.90;;;;;;5062854;28;20650;-46
2024/02/27 06:22:10;;;;;;;6.30;5.32;;;8.10;99.90;;;;;;5067385;28;20579;-47
2024/02/27 06:22:59;;;;;;;6.03;4.80;;;8.10;99.90;;;;;;5069595;28;20715;-48
2024/02/27 06:25:27;;;;;;;5.97;4.63;;;8.10;99.90;;;;;;5070285;28;20221;-45
2024/02/27 06:27:57;;;;;;;6.10;4.50;;;8.10;99.90;;;;;;5067769;28;20652;-44
2024/02/27 06:30:26;;;;;;;4.00;3.40;;;8.10;99.90;;;;;;5065552;28;20274;-46
2024/02/27 06:32:56;;;;;;;4.47;3.90;;;8.10;99.90;;;;;;5066259;28;20557;-45
2024/02/27 06:35:25;;;;;;;6.00;5.00;;;8.10;99.90;;;;;;5061035;28;20598;-46
2024/02/27 06:37:57;;;;;;;5.40;4.15;;;8.10;99.90;;;;;;5063753;28;20211;-47
2024/02/27 06:40:26;;;;;;;5.35;4.15;;;8.10;99.90;;;;;;5067138;28;20196;-46
2024/02/27 06:42:55;;;;;;;5.95;4.13;;;8.10;99.90;;;;;;5061937;28;20220;-45
2024/02/27 06:45:27;;;;;;;4.60;3.63;;;8.10;99.90;;;;;;5055722;28;20223;-49
2024/02/27 06:47:57;;;;;;;4.90;3.92;;;8.10;99.90;;;;;;5065125;28;20307;-45
2024/02/27 06:50:25;;;;;;;6.43;4.50;;;8.10;99.90;;;;;;5063934;28;20200;-51
2024/02/27 06:52:56;;;;;;;5.95;4.10;;;8.10;99.90;;;;;;5067733;28;20468;-46
2024/02/27 06:55:27;;;;;;;4.93;3.83;;;8.10;99.90;;;;;;5070551;28;20717;-44
2024/02/27 06:57:57;;;;;;;4.68;3.60;;;8.10;99.90;;;;;;5071839;28;20692;-46
2024/02/27 07:00:27;;;;;;;5.23;4.03;;;8.10;99.90;;;;;;5067570;28;20195;-45
2024/02/27 07:02:58;;;;;;;4.68;3.58;;;8.10;99.90;;;;;;5069516;28;20544;-47
2024/02/27 07:05:27;;;;;;;3.85;3.35;;;8.10;99.90;;;;;;5063673;28;20216;-45
2024/02/27 07:08:09;;;;;;;5.23;4.03;;;8.10;99.90;;;;;;5068875;28;20700;-45
2024/02/27 07:10:37;;;;;;;3.97;3.20;;;8.10;99.90;;;;;;5073780;28;20426;-46
2024/02/27 07:13:09;;;;;;;5.65;4.20;;;8.00;99.90;;;;;;5069390;28;20489;-44
2024/02/27 07:15:37;;;;;;;4.45;3.17;;;8.10;99.90;;;;;;5068462;28;20220;-45
2024/02/27 07:18:08;;;;;;;4.50;3.55;;;8.10;99.90;;;;;;5066932;28;20223;-45
2024/02/27 07:20:37;;;;;;;5.00;3.85;;;8.10;99.90;;;;;;5066447;28;20287;-46
2024/02/27 07:23:07;;;;;;;5.07;3.63;;;8.10;99.90;;;;;;5071246;28;20596;-46
2024/02/27 07:25:35;;;;;;;7.57;5.88;;;8.10;99.90;;;;;;5067923;28;20886;-46
2024/02/27 07:28:05;;;;;;;3.35;2.90;;;8.10;99.90;;;;;;5065387;28;20222;-45
2024/02/27 07:30:37;;;;;;;5.78;4.43;;;8.10;99.90;;;;;;5067208;28;20198;-50
2024/02/27 07:33:06;;;;;;;4.35;3.53;;;8.10;99.90;;;;;;5063742;28;20280;-46
2024/02/27 07:35:37;;;;;;;5.22;3.47;;;8.10;99.90;;;;;;5061822;28;20212;-45
2024/02/27 07:38:06;;;;;;;4.65;3.15;;;8.10;99.90;;;;;;5069965;28;20241;-45
2024/02/27 07:40:35;;;;;;;4.85;3.28;;;8.10;99.90;;;;;;5062588;28;20194;-47
2024/02/27 07:43:04;;;;;;;6.20;3.72;;;8.10;99.90;;;;;;5068848;28;20204;-48
2024/02/27 07:45:33;;;;;;;4.10;3.50;;;8.10;99.90;;;;;;5071315;28;20631;-45
2024/02/27 07:48:01;;;;;;;6.20;4.47;;;8.10;99.90;;;;;;5065319;28;20941;-46
2024/02/27 07:50:32;;;;;;;4.25;3.35;;;8.10;99.90;;;;;;5069942;28;20442;-45
2024/02/27 07:53:03;;;;;;;4.97;4.03;;;8.10;99.90;;;;;;5066123;28;20215;-45
2024/02/27 07:55:31;;;;;;;5.35;3.78;;;8.10;99.90;;;;;;5069450;28;20599;-44
2024/02/27 07:58:01;;;;;;;5.63;4.00;;;8.10;99.90;;;;;;5070487;28;20569;-49
2024/02/27 08:00:31;;;;;;;4.85;3.40;;;8.10;99.90;;;;;;5064239;28;20459;-45
2024/02/27 08:03:01;;;;;;;4.22;3.55;;;8.10;99.90;;;;;;5064835;28;20227;-45
2024/02/27 08:05:30;;;;;;;4.68;3.67;;;8.10;99.90;;;;;;5066241;28;20220;-45
2024/02/27 08:08:03;;;;;;;4.72;3.75;;;8.10;99.90;;;;;;5070111;28;20216;-45
2024/02/27 08:10:31;;;;;;;4.72;3.90;;;8.10;99.90;;;;;;5066615;28;20729;-45
2024/02/27 08:13:00;;;;;;;4.50;3.17;;;8.10;99.90;;;;;;5064670;28;20221;-46
2024/02/27 08:15:31;;;;;;;5.45;3.60;;;8.10;99.90;;;;;;5067030;28;20226;-45
2024/02/27 08:18:00;;;;;;;4.68;4.00;;;8.10;99.90;;;;;;5068222;28;20213;-47
2024/02/27 08:20:29;;;;;;;5.23;3.73;;;8.10;99.90;;;;;;5064676;28;20284;-47
2024/02/27 08:22:57;;;;;;;5.10;3.80;;;8.10;99.90;;;;;;5070366;28;20569;-45
2024/02/27 08:25:28;;;;;;;6.57;4.87;;;8.00;99.90;;;;;;5069072;28;20400;-45
2024/02/27 08:27:57;;;;;;;5.50;4.28;;;8.10;99.90;;;;;;5062181;28;20468;-46
2024/02/27 08:30:26;;;;;;;5.57;4.53;;;8.10;99.90;;;;;;5070336;28;20292;-47
2024/02/27 08:32:57;;;;;;;5.60;4.15;;;8.10;99.90;;;;;;5068532;28;20514;-48
2024/02/27 08:35:27;;;;;;;5.10;4.03;;;8.10;99.90;;;;;;5068032;28;20218;-45
2024/02/27 08:37:58;;;;;;;5.38;4.13;;;8.10;99.90;;;;;;5066480;28;20461;-49
2024/02/27 08:40:28;;;;;;;8.15;7.00;;;8.10;99.90;;;;;;5071892;28;20205;-44
2024/02/27 08:42:57;;;;;;;4.82;4.30;;;8.10;99.90;;;;;;5081742;28;20276;-47
2024/02/27 08:45:25;;;;;;;5.97;4.38;;;8.00;99.90;;;;;;5066289;28;20211;-46
2024/02/27 08:47:56;;;;;;;5.35;4.38;;;8.10;99.90;;;;;;5064049;28;20229;-45
2024/02/27 08:50:27;;;;;;;6.13;4.23;;;8.10;99.90;;;;;;5072352;28;20195;-46
2024/02/27 08:52:57;;;;;;;5.13;3.90;;;8.00;99.90;;;;;;5076864;28;20454;-46
2024/02/27 08:55:30;;;;;;;6.40;4.30;;;8.00;99.90;;;;;;5069330;28;20268;-47
2024/02/27 08:57:58;;;;;;;6.30;5.10;;;8.00;99.90;;;;;;5063484;28;20466;-46
2024/02/27 09:00:27;;;;;;;4.97;4.07;;;8.00;99.90;;;;;;5060357;28;21042;-45
2024/02/27 09:02:58;;;;;;;4.53;4.10;;;8.10;99.90;;;;;;5063997;28;20708;-45
2024/02/27 09:05:27;;;;;;;5.35;4.68;;;8.10;99.90;;;;;;5068128;28;20574;-45
2024/02/27 09:07:57;;;;;;;8.40;5.03;;;8.00;99.90;;;;;;5066221;28;20230;-44
2024/02/27 09:10:28;;;;;;;21.45;17.45;;;8.10;99.90;;;;;;5062071;28;20445;-47
2024/02/27 09:12:57;;;;;;;20.42;13.45;;;8.10;99.90;;;;;;5067655;28;20299;-44
2024/02/27 09:15:27;;;;;;;15.13;12.33;;;8.00;99.90;;;;;;5068334;28;20632;-47
2024/02/27 09:17:57;;;;;;;14.38;10.98;;;8.00;99.90;;;;;;5062803;28;20840;-47
2024/02/27 09:20:27;;;;;;;12.27;10.30;;;8.00;99.90;;;;;;5048690;28;20234;-45
2024/02/27 09:22:57;;;;;;;13.45;10.70;;;8.00;99.90;;;;;;5052098;28;20921;-46
2024/02/27 09:25:28;;;;;;;13.93;10.75;;;8.00;99.90;;;;;;5049205;28;20212;-50
2024/02/27 09:27:57;;;;;;;14.95;10.63;;;8.00;99.90;;;;;;5051612;28;20789;-45
2024/02/27 09:30:25;;;;;;;12.95;9.90;;;8.00;99.90;;;;;;5053100;28;20242;-47
2024/02/27 09:32:54;;;;;;;12.48;9.85;;;8.00;99.90;;;;;;5051917;28;20269;-45
2024/02/27 09:35:25;;;;;;;13.93;10.93;;;8.00;99.90;;;;;;5049152;28;20230;-47
2024/02/27 09:37:53;;;;;;;12.03;9.43;;;8.00;99.90;;;;;;5069056;28;20246;-45
2024/02/27 09:40:29;;;;;;;11.70;9.38;;;8.00;99.90;;;;;;5055333;28;20536;-50
2024/02/27 09:43:01;;;;;;;12.93;9.35;;;8.00;99.90;;;;;;5051546;28;20659;-44
2024/02/27 09:45:32;;;;;;;12.55;9.90;;;8.00;99.90;;;;;;5049429;28;20219;-49
2024/02/27 09:48:03;;;;;;;12.00;9.30;;;8.00;99.90;;;;;;5052984;28;20228;-50
2024/02/27 09:50:33;;;;;;;12.15;9.73;;;8.00;99.90;;;;;;5053256;28;20241;-45
2024/02/27 09:53:02;;;;;;;13.05;9.73;;;8.00;99.90;;;;;;5050920;28;20234;-50
2024/02/27 09:55:32;;;;;;;13.07;8.90;;;8.00;99.90;;;;;;5055231;28;20207;-45
2024/02/27 09:58:03;;;;;;;12.60;9.45;;;8.00;99.90;;;;;;5048686;28;20933;-46
2024/02/27 10:00:32;;;;;;;11.00;8.50;;;8.00;99.90;;;;;;5052690;28;20249;-45
2024/02/27 10:03:03;;;;;;;13.38;8.70;;;8.00;99.90;;;;;;5051723;28;21063;-45
2024/02/27 10:05:33;;;;;;;12.73;10.10;;;8.00;99.90;;;;;;5049632;28;20307;-49
2024/02/27 10:08:05;;;;;;;9.32;7.70;;;8.00;99.90;;;;;;5051330;28;20286;-44
2024/02/27 10:10:39;;;;;;;12.57;9.82;;;8.10;99.90;;;;;;5050662;28;21498;-47
2024/02/27 10:13:08;;;;;;;10.17;8.13;;;8.10;99.90;;;;;;5050771;28;20222;-45
2024/02/27 10:15:37;;;;;;;10.40;8.30;;;8.10;99.90;;;;;;5060257;28;21022;-45
2024/02/27 10:18:08;;;;;;;10.75;8.32;;;8.10;99.90;;;;;;5067565;28;20310;-46
2024/02/27 10:20:42;;;;;;;10.15;7.65;;;8.10;99.90;;;;;;5078904;28;20218;-44
2024/02/27 10:23:10;;;;;;;10.02;8.02;;;8.10;99.90;;;;;;5079834;28;20220;-44
2024/02/27 10:25:40;;;;;;;10.90;8.45;;;8.10;99.90;;;;;;5088732;28;20566;-45
2024/02/27 10:28:09;;;;;;;10.48;8.35;;;8.10;99.90;;;;;;5053573;28;20215;-45
2024/02/27 10:30:38;;;;;;;10.75;8.52;;;8.10;99.90;;;;;;5091092;28;20194;-44
2024/02/27 10:33:11;;;;;;;11.25;9.30;;;8.10;99.90;;;;;;5088864;28;20297;-44
2024/02/27 10:35:40;;;;;;;10.73;8.13;;;8.10;99.90;;;;;;5081016;28;20281;-44
2024/02/27 10:38:16;;;;;;;9.35;7.40;;;8.10;99.90;;;;;;5092592;28;20276;-45
2024/02/27 10:40:47;;;;;;;10.00;7.80;;;8.10;99.90;;;;;;5092681;28;20201;-45
2024/02/27 10:43:17;;;;;;;10.05;8.45;;;8.10;99.90;;;;;;5088119;28;20347;-44
2024/02/27 10:45:48;;;;;;;10.77;8.40;;;8.10;99.90;;;;;;5086848;28;20421;-44
2024/02/27 10:48:18;;;;;;;9.73;7.95;;;8.10;99.90;;;;;;5081695;28;20601;-45
2024/02/27 10:50:57;;;;;;;9.57;7.82;;;8.10;99.90;;;;;;5088015;28;20191;-44
2024/02/27 10:53:27;;;;;;;11.65;8.35;;;8.10;99.90;;;;;;5091021;28;20690;-45
2024/02/27 10:55:58;;;;;;;11.02;8.15;;;8.10;99.90;;;;;;5083692;28;20216;-45
2024/02/27 10:58:28;;;;;;;9.13;8.10;;;8.10;99.90;;;;;;5071497;28;20217;-44
2024/02/27 11:00:57;;;;;;;10.45;8.25;;;8.10;99.90;;;;;;5086956;28;20681;-45
2024/02/27 11:03:29;;;;;;;11.57;8.13;;;8.10;99.90;;;;;;5084576;28;20328;-44
2024/02/27 11:06:01;;;;;;;10.85;8.57;;;8.10;99.90;;;;;;5080150;28;20194;-45
2024/02/27 11:08:31;;;;;;;10.40;7.90;;;8.10;99.90;;;;;;5090415;28;20241;-44
2024/02/27 11:11:03;;;;;;;11.00;7.45;;;8.10;99.90;;;;;;5087113;28;20469;-44
2024/02/27 11:13:33;;;;;;;10.52;8.27;;;8.10;99.90;;;;;;5083476;28;20211;-44
2024/02/27 11:16:04;;;;;;;9.77;8.15;;;8.10;99.90;;;;;;5089835;28;20663;-44
2024/02/27 11:18:36;;;;;;;9.15;8.00;;;8.10;99.90;;;;;;5087016;28;20273;-44
2024/02/27 11:21:07;;;;;;;10.25;8.00;;;8.10;99.90;;;;;;5092455;28;20197;-44
2024/02/27 11:23:38;;;;;;;12.38;8.88;;;8.10;99.90;;;;;;5091361;28;20276;-44
2024/02/27 11:26:07;;;;;;;11.50;8.27;;;8.10;99.90;;;;;;5068629;28;20191;-44
2024/02/27 11:28:38;;;;;;;10.82;8.70;;;8.10;99.90;;;;;;5078982;28;20216;-44
2024/02/27 11:31:08;;;;;;;9.75;7.47;;;8.10;99.90;;;;;;5082856;28;20670;-44
2024/02/27 11:33:44;;;;;;;9.30;6.90;;;8.10;99.90;;;;;;5081910;28;21484;-44
2024/02/27 11:36:13;;;;;;;11.77;8.65;;;8.10;99.90;;;;;;5074961;28;20272;-44
2024/02/27 11:38:43;;;;;;;9.25;8.30;;;8.10;99.90;;;;;;5089872;28;20746;-45
2024/02/27 11:41:17;;;;;;;10.38;8.00;;;8.10;99.90;;;;;;5089891;28;20211;-44
2024/02/27 11:43:47;;;;;;;10.95;9.00;;;8.10;99.90;;;;;;5084176;28;20222;-45
2024/02/27 11:46:39;;;;;;;10.80;8.45;;;8.10;99.90;;;;;;5091845;28;20242;-44
2024/02/27 11:49:09;;;;;;;9.80;8.80;;;8.10;99.90;;;;;;5081613;28;20211;-44
2024/02/27 11:51:39;;;;;;;10.15;8.30;;;8.10;99.90;;;;;;5085233;28;20192;-45
2024/02/27 11:54:08;;;;;;;10.13;7.72;;;8.10;99.90;;;;;;5091035;28;20274;-44
2024/02/27 11:56:41;;;;;;;10.52;7.65;;;8.10;99.90;;;;;;5086470;28;20226;-44
2024/02/27 11:59:18;;;;;;;9.70;7.75;;;8.10;99.90;;;;;;5077490;28;20242;-44
2024/02/27 12:02:00;;;;;;;10.30;7.88;;;8.10;99.90;;;;;;5082795;28;20202;-44
2024/02/27 12:04:28;;;;;;;10.15;7.90;;;8.10;99.90;;;;;;5086878;28;20223;-44
2024/02/27 12:06:57;;;;;;;10.07;8.38;;;8.10;99.90;;;;;;5090982;28;20676;-44
2024/02/27 12:09:27;;;;;;;10.13;7.88;;;8.10;99.90;;;;;;5070289;28;20208;-44
2024/02/27 12:11:57;;;;;;;9.27;7.50;;;8.10;99.90;;;;;;5067583;28;20276;-44
2024/02/27 12:14:26;;;;;;;9.05;7.88;;;8.10;99.90;;;;;;5071162;28;20270;-44
2024/02/27 12:16:54;;;;;;;9.77;8.05;;;8.10;99.90;;;;;;5071547;28;20219;-44
2024/02/27 12:19:26;;;;;;;9.55;7.88;;;8.10;99.90;;;;;;5064776;28;20226;-45
2024/02/27 12:22:03;;;;;;;9.52;8.15;;;8.10;99.90;;;;;;5072140;28;20216;-44
2024/02/27 12:24:32;;;;;;;9.73;7.57;;;8.10;99.90;;;;;;5071641;28;20225;-44
2024/02/27 12:27:01;;;;;;;10.27;7.85;;;8.10;99.90;;;;;;5070923;28;20654;-44
2024/02/27 12:29:31;;;;;;;9.68;8.02;;;8.10;99.90;;;;;;5067528;28;20313;-45
2024/02/27 12:32:01;;;;;;;10.18;8.48;;;8.10;99.90;;;;;;5071877;28;20281;-44
2024/02/27 12:34:32;;;;;;;9.83;8.00;;;8.10;99.90;;;;;;5069189;28;20305;-44
2024/02/27 12:37:02;;;;;;;9.05;6.60;;;8.10;99.90;;;;;;5070288;28;20551;-44
2024/02/27 12:39:31;;;;;;;9.35;7.25;;;8.10;99.90;;;;;;5068567;28;20763;-44
2024/02/27 12:42:03;;;;;;;9.55;7.40;;;8.00;99.90;;;;;;5070838;28;20191;-44
2024/02/27 12:44:31;;;;;;;10.70;7.72;;;8.10;99.90;;;;;;5070207;28;20221;-44
2024/02/27 12:47:01;;;;;;;10.85;7.72;;;8.10;99.90;;;;;;5071750;28;20200;-44
2024/02/27 12:49:31;;;;;;;10.23;8.00;;;8.10;99.90;;;;;;5068676;28;20237;-44
2024/02/27 12:52:01;;;;;;;9.65;8.02;;;8.10;99.90;;;;;;5070386;28;20436;-44
2024/02/27 12:54:30;;;;;;;8.90;6.85;;;8.10;99.90;;;;;;5069840;28;20303;-44
2024/02/27 12:57:03;;;;;;;10.63;8.18;;;8.10;99.90;;;;;;5070135;28;20205;-44
2024/02/27 12:59:33;;;;;;;10.00;8.07;;;8.00;99.90;;;;;;5046697;28;20223;-45
2024/02/27 13:02:10;;;;;;;9.75;8.38;;;8.10;99.90;;;;;;5070294;28;20900;-45
2024/02/27 13:04:42;;;;;;;11.47;8.87;;;8.10;99.90;;;;;;5051337;28;20215;-45
2024/02/27 13:07:14;;;;;;;10.77;7.90;;;8.10;99.90;;;;;;5069257;28;20429;-44
2024/02/27 13:09:44;;;;;;;8.68;7.57;;;8.10;99.90;;;;;;5066956;28;20565;-45